sensor_id;sensor_type;location;lat;lon;timestamp;pressure;altitude;pressure_sealevel;temperature;humidity
36242;BME280;22283;42.748;12.732;2022-08-01T00:03:19;97983.22;;;21.64;48.85
36242;BME280;22283;42.748;12.732;2022-08-01T00:08:20;97980.91;;;21.61;48.92
36242;BME280;22283;42.748;12.732;2022-08-01T00:13:20;97980.91;;;21.46;49.50
36242;BME280;22283;42.748;12.732;2022-08-01T00:18:21;97962.19;;;21.30;49.76
36242;BME280;22283;42.748;12.732;2022-08-01T00:23:22;97963.13;;;21.22;50.24
36242;BME280;22283;42.748;12.732;2022-08-01T00:28:23;97968.41;;;21.16;50.55
36242;BME280;22283;42.748;12.732;2022-08-01T00:33:24;97978.03;;;21.10;50.58
36242;BME280;22283;42.748;12.732;2022-08-01T00:38:25;97972.50;;;21.11;50.62
36242;BME280;22283;42.748;12.732;2022-08-01T00:43:25;97976.47;;;21.16;50.76
36242;BME280;22283;42.748;12.732;2022-08-01T00:48:26;97967.09;;;21.11;50.85
36242;BME280;22283;42.748;12.732;2022-08-01T00:53:27;97971.19;;;21.07;51.54
36242;BME280;22283;42.748;12.732;2022-08-01T00:58:28;97976.72;;;21.06;51.14
36242;BME280;22283;42.748;12.732;2022-08-01T01:03:31;97971.91;;;21.01;51.28
36242;BME280;22283;42.748;12.732;2022-08-01T01:08:38;97961.88;;;20.95;51.04
36242;BME280;22283;42.748;12.732;2022-08-01T01:14:04;97973.56;;;20.87;51.87
36242;BME280;22283;42.748;12.732;2022-08-01T01:19:09;97970.38;;;20.84;52.16
36242;BME280;22283;42.748;12.732;2022-08-01T01:24:28;97975.47;;;20.79;52.17
36242;BME280;22283;42.748;12.732;2022-08-01T01:34:36;97968.19;;;20.65;52.37
36242;BME280;22283;42.748;12.732;2022-08-01T01:39:38;97974.66;;;20.55;52.33
36242;BME280;22283;42.748;12.732;2022-08-01T01:44:43;97978.53;;;20.53;52.46
36242;BME280;22283;42.748;12.732;2022-08-01T01:49:47;97967.59;;;20.46;52.79
36242;BME280;22283;42.748;12.732;2022-08-01T01:54:50;97974.19;;;20.44;52.90
36242;BME280;22283;42.748;12.732;2022-08-01T01:59:53;97980.06;;;20.39;52.94
36242;BME280;22283;42.748;12.732;2022-08-01T02:04:54;97974.13;;;20.29;53.68
36242;BME280;22283;42.748;12.732;2022-08-01T02:09:57;97989.25;;;20.22;54.22
36242;BME280;22283;42.748;12.732;2022-08-01T02:14:59;97979.97;;;20.01;54.18
36242;BME280;22283;42.748;12.732;2022-08-01T02:20:00;97974.13;;;19.98;54.25
36242;BME280;22283;42.748;12.732;2022-08-01T02:25:22;97983.00;;;19.98;54.46
36242;BME280;22283;42.748;12.732;2022-08-01T02:30:24;97973.25;;;20.05;54.30
36242;BME280;22283;42.748;12.732;2022-08-01T02:35:28;97976.22;;;20.10;54.16
36242;BME280;22283;42.748;12.732;2022-08-01T02:40:32;97981.78;;;20.09;53.99
36242;BME280;22283;42.748;12.732;2022-08-01T02:45:35;97979.75;;;20.11;54.08
36242;BME280;22283;42.748;12.732;2022-08-01T02:50:39;97983.69;;;20.00;54.97
36242;BME280;22283;42.748;12.732;2022-08-01T02:55:43;97975.47;;;19.94;55.36
36242;BME280;22283;42.748;12.732;2022-08-01T03:00:47;97982.75;;;19.85;55.26
36242;BME280;22283;42.748;12.732;2022-08-01T03:05:49;97982.06;;;19.83;55.04
36242;BME280;22283;42.748;12.732;2022-08-01T03:10:51;97986.44;;;19.76;55.37
36242;BME280;22283;42.748;12.732;2022-08-01T03:15:54;97992.03;;;19.66;56.08
36242;BME280;22283;42.748;12.732;2022-08-01T03:20:58;97985.50;;;19.60;56.84
36242;BME280;22283;42.748;12.732;2022-08-01T03:26:01;97998.91;;;19.60;57.80
36242;BME280;22283;42.748;12.732;2022-08-01T03:31:02;97999.59;;;19.54;57.08
36242;BME280;22283;42.748;12.732;2022-08-01T03:36:04;97991.22;;;19.49;57.34
36242;BME280;22283;42.748;12.732;2022-08-01T03:41:15;97997.97;;;19.37;59.11
36242;BME280;22283;42.748;12.732;2022-08-01T03:46:21;98007.19;;;19.26;59.95
36242;BME280;22283;42.748;12.732;2022-08-01T03:51:23;98003.34;;;19.21;59.75
36242;BME280;22283;42.748;12.732;2022-08-01T03:56:25;98009.56;;;19.21;58.56
36242;BME280;22283;42.748;12.732;2022-08-01T04:01:28;98014.41;;;19.17;57.93
36242;BME280;22283;42.748;12.732;2022-08-01T04:06:31;98014.09;;;19.12;57.84
36242;BME280;22283;42.748;12.732;2022-08-01T04:11:34;98001.34;;;19.14;58.22
36242;BME280;22283;42.748;12.732;2022-08-01T04:16:35;98015.75;;;19.13;58.16
36242;BME280;22283;42.748;12.732;2022-08-01T04:21:36;98015.91;;;19.12;58.69
36242;BME280;22283;42.748;12.732;2022-08-01T04:26:38;98018.78;;;19.10;58.78
36242;BME280;22283;42.748;12.732;2022-08-01T04:31:42;98034.69;;;19.04;59.23
36242;BME280;22283;42.748;12.732;2022-08-01T04:36:45;98028.16;;;19.23;58.72
36242;BME280;22283;42.748;12.732;2022-08-01T04:41:46;98027.34;;;19.86;56.56
36242;BME280;22283;42.748;12.732;2022-08-01T04:46:49;98039.63;;;20.28;54.88
36242;BME280;22283;42.748;12.732;2022-08-01T04:51:55;98040.28;;;20.84;52.75
36242;BME280;22283;42.748;12.732;2022-08-01T04:57:00;98035.09;;;21.43;51.27
36242;BME280;22283;42.748;12.732;2022-08-01T05:02:01;98035.59;;;21.76;51.11
36242;BME280;22283;42.748;12.732;2022-08-01T05:07:03;98029.94;;;22.16;48.11
36242;BME280;22283;42.748;12.732;2022-08-01T05:12:05;98025.47;;;22.80;47.37
36242;BME280;22283;42.748;12.732;2022-08-01T05:17:08;98038.97;;;23.73;44.95
36242;BME280;22283;42.748;12.732;2022-08-01T05:22:09;98038.00;;;24.28;43.13
36242;BME280;22283;42.748;12.732;2022-08-01T05:27:10;98041.91;;;24.67;42.19
36242;BME280;22283;42.748;12.732;2022-08-01T05:32:11;98040.34;;;25.13;41.25
36242;BME280;22283;42.748;12.732;2022-08-01T05:37:11;98040.75;;;25.49;40.92
36242;BME280;22283;42.748;12.732;2022-08-01T05:42:12;98040.31;;;25.52;42.53
36242;BME280;22283;42.748;12.732;2022-08-01T05:47:13;98049.47;;;25.91;43.50
36242;BME280;22283;42.748;12.732;2022-08-01T05:52:14;98057.41;;;26.44;42.97
36242;BME280;22283;42.748;12.732;2022-08-01T05:57:15;98057.97;;;26.66;42.64
36242;BME280;22283;42.748;12.732;2022-08-01T06:02:15;98048.97;;;27.11;41.79
36242;BME280;22283;42.748;12.732;2022-08-01T06:07:16;98050.63;;;27.62;37.93
36242;BME280;22283;42.748;12.732;2022-08-01T06:12:17;98044.59;;;28.03;36.11
36242;BME280;22283;42.748;12.732;2022-08-01T06:17:18;98042.13;;;28.20;36.04
36242;BME280;22283;42.748;12.732;2022-08-01T06:22:19;98040.75;;;28.48;36.61
36242;BME280;22283;42.748;12.732;2022-08-01T06:27:19;98040.88;;;28.34;37.75
36242;BME280;22283;42.748;12.732;2022-08-01T06:32:20;98044.66;;;28.15;39.17
36242;BME280;22283;42.748;12.732;2022-08-01T06:37:23;98032.72;;;28.34;38.92
36242;BME280;22283;42.748;12.732;2022-08-01T06:42:23;98038.16;;;28.34;39.11
36242;BME280;22283;42.748;12.732;2022-08-01T06:47:24;98032.91;;;28.70;39.18
36242;BME280;22283;42.748;12.732;2022-08-01T06:52:25;98038.16;;;28.71;39.27
36242;BME280;22283;42.748;12.732;2022-08-01T06:57:26;98043.97;;;29.05;38.05
36242;BME280;22283;42.748;12.732;2022-08-01T07:02:27;98033.34;;;29.27;37.74
36242;BME280;22283;42.748;12.732;2022-08-01T07:07:29;98037.47;;;29.29;36.66
36242;BME280;22283;42.748;12.732;2022-08-01T07:12:30;98041.06;;;29.41;34.60
36242;BME280;22283;42.748;12.732;2022-08-01T07:17:31;98038.22;;;29.48;34.93
36242;BME280;22283;42.748;12.732;2022-08-01T07:22:32;98032.66;;;29.31;33.50
36242;BME280;22283;42.748;12.732;2022-08-01T07:27:33;98035.47;;;29.36;34.16
36242;BME280;22283;42.748;12.732;2022-08-01T07:32:34;98028.16;;;29.49;33.69
36242;BME280;22283;42.748;12.732;2022-08-01T07:37:35;98020.25;;;29.05;35.35
36242;BME280;22283;42.748;12.732;2022-08-01T07:42:36;98027.63;;;28.75;36.04
36242;BME280;22283;42.748;12.732;2022-08-01T07:47:37;98033.75;;;28.70;36.76
36242;BME280;22283;42.748;12.732;2022-08-01T07:52:37;98017.09;;;29.08;36.50
36242;BME280;22283;42.748;12.732;2022-08-01T07:57:38;98024.34;;;29.26;35.66
36242;BME280;22283;42.748;12.732;2022-08-01T08:02:39;98018.88;;;29.38;35.12
36242;BME280;22283;42.748;12.732;2022-08-01T08:07:40;98015.97;;;29.51;34.55
36242;BME280;22283;42.748;12.732;2022-08-01T08:12:40;98016.56;;;29.65;34.13
36242;BME280;22283;42.748;12.732;2022-08-01T08:17:42;98008.16;;;29.90;34.16
36242;BME280;22283;42.748;12.732;2022-08-01T08:22:42;98003.16;;;29.99;31.59
36242;BME280;22283;42.748;12.732;2022-08-01T08:27:43;98017.25;;;30.19;32.35
36242;BME280;22283;42.748;12.732;2022-08-01T08:32:44;98012.63;;;30.20;31.52
36242;BME280;22283;42.748;12.732;2022-08-01T08:37:45;98013.72;;;30.47;31.15
36242;BME280;22283;42.748;12.732;2022-08-01T08:42:46;98008.69;;;30.56;31.18
36242;BME280;22283;42.748;12.732;2022-08-01T08:47:48;98018.75;;;30.67;30.30
36242;BME280;22283;42.748;12.732;2022-08-01T08:52:55;98006.09;;;30.90;30.05
36242;BME280;22283;42.748;12.732;2022-08-01T08:57:57;98012.22;;;30.97;29.60
36242;BME280;22283;42.748;12.732;2022-08-01T09:03:00;98004.78;;;31.09;29.19
36242;BME280;22283;42.748;12.732;2022-08-01T09:08:01;98006.78;;;31.14;29.07
36242;BME280;22283;42.748;12.732;2022-08-01T09:13:06;97999.97;;;31.16;28.98
36242;BME280;22283;42.748;12.732;2022-08-01T09:18:08;98001.97;;;31.21;28.57
36242;BME280;22283;42.748;12.732;2022-08-01T09:23:36;97989.53;;;31.64;27.91
36242;BME280;22283;42.748;12.732;2022-08-01T09:28:43;97982.94;;;31.81;25.64
36242;BME280;22283;42.748;12.732;2022-08-01T09:33:58;97984.44;;;32.11;23.63
36242;BME280;22283;42.748;12.732;2022-08-01T09:39:12;97978.59;;;32.46;23.61
36242;BME280;22283;42.748;12.732;2022-08-01T09:44:14;97961.78;;;32.38;22.15
36242;BME280;22283;42.748;12.732;2022-08-01T09:49:27;97963.38;;;32.55;22.56
36242;BME280;22283;42.748;12.732;2022-08-01T09:54:32;97959.16;;;33.02;22.66
36242;BME280;22283;42.748;12.732;2022-08-01T09:59:38;97952.84;;;33.34;22.04
36242;BME280;22283;42.748;12.732;2022-08-01T10:04:47;97947.41;;;33.39;21.84
36242;BME280;22283;42.748;12.732;2022-08-01T10:09:48;97945.41;;;33.29;22.04
36242;BME280;22283;42.748;12.732;2022-08-01T10:14:50;97944.09;;;33.37;21.38
36242;BME280;22283;42.748;12.732;2022-08-01T10:19:52;97937.13;;;33.56;22.19
36242;BME280;22283;42.748;12.732;2022-08-01T10:24:55;97927.66;;;33.42;21.58
36242;BME280;22283;42.748;12.732;2022-08-01T10:29:59;97925.63;;;33.59;21.55
36242;BME280;22283;42.748;12.732;2022-08-01T10:35:06;97921.44;;;33.99;21.41
36242;BME280;22283;42.748;12.732;2022-08-01T10:40:08;97912.72;;;33.55;21.85
36242;BME280;22283;42.748;12.732;2022-08-01T10:45:14;97911.88;;;33.54;21.71
36242;BME280;22283;42.748;12.732;2022-08-01T10:50:31;97899.56;;;33.19;22.07
36242;BME280;22283;42.748;12.732;2022-08-01T10:56:05;97904.06;;;33.88;21.78
36242;BME280;22283;42.748;12.732;2022-08-01T11:01:22;97892.09;;;34.05;21.04
36242;BME280;22283;42.748;12.732;2022-08-01T11:06:26;97892.97;;;34.25;21.33
36242;BME280;22283;42.748;12.732;2022-08-01T11:11:29;97895.13;;;34.08;21.14
36242;BME280;22283;42.748;12.732;2022-08-01T11:16:35;97890.25;;;34.31;21.12
36242;BME280;22283;42.748;12.732;2022-08-01T11:27:20;97882.56;;;34.48;21.34
36242;BME280;22283;42.748;12.732;2022-08-01T11:32:30;97869.72;;;34.54;20.96
36242;BME280;22283;42.748;12.732;2022-08-01T11:37:32;97871.91;;;34.77;20.74
36242;BME280;22283;42.748;12.732;2022-08-01T11:42:33;97855.66;;;34.96;20.86
36242;BME280;22283;42.748;12.732;2022-08-01T11:52:44;97853.75;;;34.76;20.82
36242;BME280;22283;42.748;12.732;2022-08-01T11:57:45;97849.09;;;34.77;20.23
36242;BME280;22283;42.748;12.732;2022-08-01T12:02:56;97844.13;;;35.04;20.11
36242;BME280;22283;42.748;12.732;2022-08-01T12:07:58;97848.28;;;34.66;20.49
36242;BME280;22283;42.748;12.732;2022-08-01T12:13:01;97833.16;;;34.63;20.93
36242;BME280;22283;42.748;12.732;2022-08-01T12:18:04;97824.56;;;35.36;20.71
36242;BME280;22283;42.748;12.732;2022-08-01T12:23:08;97838.06;;;35.22;20.00
36242;BME280;22283;42.748;12.732;2022-08-01T12:28:12;97824.91;;;34.89;19.79
36242;BME280;22283;42.748;12.732;2022-08-01T12:33:17;97809.22;;;35.15;19.82
36242;BME280;22283;42.748;12.732;2022-08-01T12:38:20;97812.41;;;35.58;19.62
36242;BME280;22283;42.748;12.732;2022-08-01T12:43:25;97808.97;;;35.06;20.20
36242;BME280;22283;42.748;12.732;2022-08-01T12:48:26;97793.56;;;35.10;20.60
36242;BME280;22283;42.748;12.732;2022-08-01T12:53:28;97795.63;;;35.44;20.91
36242;BME280;22283;42.748;12.732;2022-08-01T12:58:34;97790.72;;;35.36;20.17
36242;BME280;22283;42.748;12.732;2022-08-01T13:03:35;97794.53;;;35.45;19.31
36242;BME280;22283;42.748;12.732;2022-08-01T13:08:36;97786.94;;;35.21;18.97
36242;BME280;22283;42.748;12.732;2022-08-01T13:13:47;97785.25;;;35.26;19.64
36242;BME280;22283;42.748;12.732;2022-08-01T13:18:49;97784.44;;;35.20;19.53
36242;BME280;22283;42.748;12.732;2022-08-01T13:24:07;97764.38;;;35.25;19.29
36242;BME280;22283;42.748;12.732;2022-08-01T13:29:09;97785.00;;;35.12;19.33
36242;BME280;22283;42.748;12.732;2022-08-01T13:34:16;97761.66;;;35.14;19.31
36242;BME280;22283;42.748;12.732;2022-08-01T13:39:17;97768.28;;;34.93;19.65
36242;BME280;22283;42.748;12.732;2022-08-01T13:44:36;97760.53;;;35.20;20.12
36242;BME280;22283;42.748;12.732;2022-08-01T13:49:37;97754.38;;;35.44;19.63
36242;BME280;22283;42.748;12.732;2022-08-01T13:54:38;97745.69;;;35.11;19.75
36242;BME280;22283;42.748;12.732;2022-08-01T13:59:39;97742.09;;;35.26;19.92
36242;BME280;22283;42.748;12.732;2022-08-01T14:04:40;97736.88;;;35.19;20.15
36242;BME280;22283;42.748;12.732;2022-08-01T14:09:41;97737.41;;;35.27;19.87
36242;BME280;22283;42.748;12.732;2022-08-01T14:14:42;97741.03;;;35.12;19.01
36242;BME280;22283;42.748;12.732;2022-08-01T14:19:43;97742.44;;;35.04;19.25
36242;BME280;22283;42.748;12.732;2022-08-01T14:24:43;97735.56;;;34.91;18.95
36242;BME280;22283;42.748;12.732;2022-08-01T14:29:44;97742.47;;;34.89;18.69
36242;BME280;22283;42.748;12.732;2022-08-01T14:34:47;97724.28;;;34.98;18.93
36242;BME280;22283;42.748;12.732;2022-08-01T14:39:48;97722.09;;;35.00;19.37
36242;BME280;22283;42.748;12.732;2022-08-01T14:44:48;97729.25;;;35.01;19.05
36242;BME280;22283;42.748;12.732;2022-08-01T14:49:50;97719.91;;;35.02;19.27
36242;BME280;22283;42.748;12.732;2022-08-01T14:54:51;97717.06;;;35.22;19.61
36242;BME280;22283;42.748;12.732;2022-08-01T14:59:52;97707.38;;;35.35;19.42
36242;BME280;22283;42.748;12.732;2022-08-01T15:04:52;97713.41;;;35.42;19.13
36242;BME280;22283;42.748;12.732;2022-08-01T15:09:53;97708.47;;;35.39;19.41
36242;BME280;22283;42.748;12.732;2022-08-01T15:14:54;97701.69;;;35.21;19.38
36242;BME280;22283;42.748;12.732;2022-08-01T15:19:57;97703.88;;;35.19;19.41
36242;BME280;22283;42.748;12.732;2022-08-01T15:24:59;97704.69;;;35.20;19.57
36242;BME280;22283;42.748;12.732;2022-08-01T15:30:00;97692.28;;;35.33;19.66
36242;BME280;22283;42.748;12.732;2022-08-01T15:35:01;97701.19;;;35.04;19.41
36242;BME280;22283;42.748;12.732;2022-08-01T15:40:02;97700.63;;;35.07;19.40
36242;BME280;22283;42.748;12.732;2022-08-01T15:45:03;97698.47;;;34.99;19.28
36242;BME280;22283;42.748;12.732;2022-08-01T15:50:05;97699.88;;;34.86;19.60
36242;BME280;22283;42.748;12.732;2022-08-01T15:55:06;97691.34;;;34.83;19.60
36242;BME280;22283;42.748;12.732;2022-08-01T16:00:08;97697.41;;;34.80;19.08
36242;BME280;22283;42.748;12.732;2022-08-01T16:05:12;97683.66;;;34.80;19.13
36242;BME280;22283;42.748;12.732;2022-08-01T16:10:13;97687.53;;;34.79;19.45
36242;BME280;22283;42.748;12.732;2022-08-01T16:15:14;97676.53;;;34.68;19.18
36242;BME280;22283;42.748;12.732;2022-08-01T16:20:14;97671.34;;;34.67;19.81
36242;BME280;22283;42.748;12.732;2022-08-01T16:25:15;97667.78;;;34.66;19.57
36242;BME280;22283;42.748;12.732;2022-08-01T16:30:17;97673.84;;;34.43;19.82
36242;BME280;22283;42.748;12.732;2022-08-01T16:35:18;97669.97;;;34.44;20.25
36242;BME280;22283;42.748;12.732;2022-08-01T16:40:19;97668.91;;;34.40;20.04
36242;BME280;22283;42.748;12.732;2022-08-01T16:45:20;97668.63;;;34.36;19.93
36242;BME280;22283;42.748;12.732;2022-08-01T16:50:24;97673.03;;;34.27;20.45
36242;BME280;22283;42.748;12.732;2022-08-01T16:55:25;97671.69;;;34.30;20.33
36242;BME280;22283;42.748;12.732;2022-08-01T17:00:26;97673.34;;;34.10;20.35
36242;BME280;22283;42.748;12.732;2022-08-01T17:05:27;97666.75;;;34.11;20.88
36242;BME280;22283;42.748;12.732;2022-08-01T17:10:28;97672.50;;;34.05;20.52
36242;BME280;22283;42.748;12.732;2022-08-01T17:15:29;97676.06;;;34.00;20.63
36242;BME280;22283;42.748;12.732;2022-08-01T17:20:32;97678.50;;;33.91;20.33
36242;BME280;22283;42.748;12.732;2022-08-01T17:25:33;97675.50;;;33.88;20.31
36242;BME280;22283;42.748;12.732;2022-08-01T17:30:35;97681.53;;;33.74;20.55
36242;BME280;22283;42.748;12.732;2022-08-01T17:35:38;97680.13;;;33.72;20.70
36242;BME280;22283;42.748;12.732;2022-08-01T17:40:38;97675.47;;;33.62;20.86
36242;BME280;22283;42.748;12.732;2022-08-01T17:45:40;97687.78;;;33.49;21.61
36242;BME280;22283;42.748;12.732;2022-08-01T17:50:43;97687.97;;;33.38;21.44
36242;BME280;22283;42.748;12.732;2022-08-01T17:55:44;97682.97;;;33.09;21.73
36242;BME280;22283;42.748;12.732;2022-08-01T18:00:45;97702.06;;;32.94;22.07
36242;BME280;22283;42.748;12.732;2022-08-01T18:05:46;97700.34;;;32.83;22.10
36242;BME280;22283;42.748;12.732;2022-08-01T18:10:47;97696.72;;;32.67;22.38
36242;BME280;22283;42.748;12.732;2022-08-01T18:15:48;97711.63;;;32.44;22.98
36242;BME280;22283;42.748;12.732;2022-08-01T18:20:49;97715.75;;;32.14;23.72
36242;BME280;22283;42.748;12.732;2022-08-01T18:25:50;97718.09;;;31.73;24.47
36242;BME280;22283;42.748;12.732;2022-08-01T18:30:50;97727.50;;;31.33;25.12
36242;BME280;22283;42.748;12.732;2022-08-01T18:35:52;97743.66;;;30.96;25.62
36242;BME280;22283;42.748;12.732;2022-08-01T18:40:53;97758.25;;;30.68;27.94
36242;BME280;22283;42.748;12.732;2022-08-01T18:45:54;97769.06;;;30.41;30.97
36242;BME280;22283;42.748;12.732;2022-08-01T18:50:56;97787.56;;;30.22;32.40
36242;BME280;22283;42.748;12.732;2022-08-01T18:56:00;97795.59;;;30.00;34.28
36242;BME280;22283;42.748;12.732;2022-08-01T19:01:01;97806.47;;;29.83;34.89
36242;BME280;22283;42.748;12.732;2022-08-01T19:06:02;97815.50;;;29.72;35.43
36242;BME280;22283;42.748;12.732;2022-08-01T19:11:04;97826.47;;;29.49;36.46
36242;BME280;22283;42.748;12.732;2022-08-01T19:16:05;97834.09;;;29.35;36.80
36242;BME280;22283;42.748;12.732;2022-08-01T19:21:06;97847.47;;;29.25;37.15
36242;BME280;22283;42.748;12.732;2022-08-01T19:26:09;97841.94;;;29.08;37.51
36242;BME280;22283;42.748;12.732;2022-08-01T19:31:13;97858.16;;;29.03;37.60
36242;BME280;22283;42.748;12.732;2022-08-01T19:36:16;97861.53;;;28.86;38.38
36242;BME280;22283;42.748;12.732;2022-08-01T19:41:18;97859.53;;;28.70;38.28
36242;BME280;22283;42.748;12.732;2022-08-01T19:46:19;97874.53;;;28.61;38.94
36242;BME280;22283;42.748;12.732;2022-08-01T19:51:22;97881.97;;;28.54;39.20
36242;BME280;22283;42.748;12.732;2022-08-01T19:56:24;97885.28;;;28.44;39.33
36242;BME280;22283;42.748;12.732;2022-08-01T20:01:25;97897.44;;;28.41;39.39
36242;BME280;22283;42.748;12.732;2022-08-01T20:06:28;97919.09;;;28.36;39.38
36242;BME280;22283;42.748;12.732;2022-08-01T20:11:28;97909.25;;;28.35;39.34
36242;BME280;22283;42.748;12.732;2022-08-01T20:16:30;97922.56;;;28.25;39.40
36242;BME280;22283;42.748;12.732;2022-08-01T20:21:34;97922.88;;;28.17;39.49
36242;BME280;22283;42.748;12.732;2022-08-01T20:26:36;97925.09;;;28.08;39.51
36242;BME280;22283;42.748;12.732;2022-08-01T20:31:38;97930.38;;;28.03;39.71
36242;BME280;22283;42.748;12.732;2022-08-01T20:36:40;97933.25;;;27.90;40.16
36242;BME280;22283;42.748;12.732;2022-08-01T20:41:41;97936.91;;;27.84;40.16
36242;BME280;22283;42.748;12.732;2022-08-01T20:46:43;97939.63;;;27.84;40.50
36242;BME280;22283;42.748;12.732;2022-08-01T20:51:47;97944.31;;;27.77;40.85
36242;BME280;22283;42.748;12.732;2022-08-01T20:56:56;97953.09;;;27.54;41.33
36242;BME280;22283;42.748;12.732;2022-08-01T21:07:41;97959.78;;;27.33;41.83
36242;BME280;22283;42.748;12.732;2022-08-01T21:17:54;97954.66;;;27.25;41.84
36242;BME280;22283;42.748;12.732;2022-08-01T21:23:14;97956.34;;;27.19;42.46
36242;BME280;22283;42.748;12.732;2022-08-01T21:28:20;97955.38;;;27.07;42.89
36242;BME280;22283;42.748;12.732;2022-08-01T21:33:23;97955.31;;;26.88;43.23
36242;BME280;22283;42.748;12.732;2022-08-01T21:38:25;97956.53;;;26.92;43.23
36242;BME280;22283;42.748;12.732;2022-08-01T21:43:30;97963.13;;;26.78;43.73
36242;BME280;22283;42.748;12.732;2022-08-01T21:48:31;97964.47;;;26.69;43.98
36242;BME280;22283;42.748;12.732;2022-08-01T22:09:44;97975.91;;;26.33;45.64
36242;BME280;22283;42.748;12.732;2022-08-01T22:14:47;97976.97;;;26.25;46.18
36242;BME280;22283;42.748;12.732;2022-08-01T22:19:49;97969.72;;;26.19;46.74
36242;BME280;22283;42.748;12.732;2022-08-01T22:24:53;97976.06;;;25.99;47.40
36242;BME280;22283;42.748;12.732;2022-08-01T22:29:59;97981.94;;;25.90;47.72
36242;BME280;22283;42.748;12.732;2022-08-01T22:35:03;97968.00;;;25.66;48.52
36242;BME280;22283;42.748;12.732;2022-08-01T22:40:10;97965.53;;;25.58;48.88
36242;BME280;22283;42.748;12.732;2022-08-01T22:50:32;97960.34;;;25.43;49.62
36242;BME280;22283;42.748;12.732;2022-08-01T22:55:36;97967.44;;;25.31;49.88
36242;BME280;22283;42.748;12.732;2022-08-01T23:00:37;97962.03;;;25.31;49.83
36242;BME280;22283;42.748;12.732;2022-08-01T23:05:45;97957.03;;;25.21;49.94
36242;BME280;22283;42.748;12.732;2022-08-01T23:10:49;97954.13;;;25.16;50.53
36242;BME280;22283;42.748;12.732;2022-08-01T23:15:51;97960.19;;;25.12;50.10
36242;BME280;22283;42.748;12.732;2022-08-01T23:20:59;97947.88;;;25.09;50.02
36242;BME280;22283;42.748;12.732;2022-08-01T23:26:00;97944.13;;;25.10;50.14
36242;BME280;22283;42.748;12.732;2022-08-01T23:31:02;97949.53;;;25.03;50.10
36242;BME280;22283;42.748;12.732;2022-08-01T23:36:03;97946.19;;;25.01;50.32
36242;BME280;22283;42.748;12.732;2022-08-01T23:41:04;97945.78;;;24.91;50.57
36242;BME280;22283;42.748;12.732;2022-08-01T23:46:14;97945.16;;;24.83;51.00
36242;BME280;22283;42.748;12.732;2022-08-01T23:51:14;97948.25;;;24.73;50.96
36242;BME280;22283;42.748;12.732;2022-08-01T23:56:15;97942.84;;;24.60;50.97
